Tulare, CA (93274)

5:24 AM PDT on September 05, 2015 (GMT -0700)
APRSWXNET | | Change Station
CLOSE
Current Station
Personal Weather Station
Location: Tulare, CA
Elevation: 288 ft
Nearby Weather Stations

Elev 288 ft 36.20 °N, 119.33 °W | Updated 20 minutes ago

Clear
Clear
59 °F
Feels Like 59 °F
N
0
Wind Variable Wind from WSW
Gusts 0.0 mph

Today
High -- | Low -- °F
--% Chance of Precip.
Yesterday
High -- | Low -- °F
Precip. -- in
6:31 AM 7:19 PM
Waning Gibbous, 49% visible
Pressure 29.90 in
Visibility 10.0 miles
Clouds Clear
Dew Point 46 °F
Humidity 63%
Rainfall in
Snow Depth Not available.
UV 0 out of 12
Pollen 9.10 out of 12
Air Quality Not available.
Flu Activity Not available.
METAR KVIS 051156Z AUTO 23006KT 10SM CLR 14/08 A2988 RMK AO2 SLP123 T01390078 10211 20139 51008
Pressure 29.90 in
Visibility 10.0 miles
Clouds Clear
Dew Point 46 °F
Humidity 63%
Rainfall in
Snow Depth Not available.
UV 0 out of 12
Pollen 9.10 out of 12
Air Quality Not available.
Flu Activity Not available.
METAR KVIS 051156Z AUTO 23006KT 10SM CLR 14/08 A2988 RMK AO2 SLP123 T01390078 10211 20139 51008

10-Day Weather Forecast

×

Almanac

Astronomy

Sep. 05, 2015 Rise Set
Actual Time
Civil Twilight
Nautical Twilight
Astronomical Twilight
Moon
Length of Visible Light
Length of Day
Tomorrow will be .
, % of the Moon is Illuminated

Today's Extremes

State Highs State Lows

Community

WunderPhotos

Upload Photos

1,852,455 photos uploaded!

WunderBlogs® & News

Nearby

Air Quality

  Air Quality AQ Index Pollutant
Not available.

Snow Depth

Station Depth Elevation

Earthquake Activity

City Distance Mag. Time & Date
Minimum magnitude displayed is 2.5.

Coastal Water Temperatures

Place Temperature

Stations

Nearby Weather Stations

Station Location Temp. Windchill Dew Point Humidity Wind Precip. Elev Updated Type